createdAt,value
2019-02-25T00:00:49.958Z,1.86
2019-02-25T00:03:21.955Z,1.86
2019-02-25T00:05:54.025Z,1.82
2019-02-25T00:08:26.136Z,1.76
2019-02-25T00:10:58.185Z,1.71
2019-02-25T00:13:30.240Z,1.66
2019-02-25T00:16:02.245Z,1.67
2019-02-25T00:18:34.266Z,1.58
2019-02-25T00:21:06.287Z,1.55
2019-02-25T00:23:38.329Z,1.57
2019-02-25T00:26:10.384Z,1.55
2019-02-25T00:28:42.432Z,1.50
2019-02-25T00:31:14.486Z,1.51
2019-02-25T00:33:46.485Z,1.51
2019-02-25T00:36:18.499Z,1.44
2019-02-25T00:39:31.333Z,1.48
2019-02-25T00:42:03.375Z,1.48
2019-02-25T00:44:35.381Z,1.49
2019-02-25T00:47:07.399Z,1.41
2019-02-25T00:49:39.444Z,1.39
2019-02-25T00:52:11.446Z,1.47
2019-02-25T00:54:43.427Z,1.54
2019-02-25T00:57:15.405Z,1.55
2019-02-25T00:59:47.389Z,1.57
2019-02-25T01:02:19.373Z,1.51
2019-02-25T01:04:51.399Z,1.47
2019-02-25T01:07:23.387Z,1.37
2019-02-25T01:09:55.344Z,1.38
2019-02-25T01:12:27.333Z,1.29
2019-02-25T01:14:59.300Z,1.31
2019-02-25T01:17:31.285Z,1.32
2019-02-25T01:20:03.312Z,1.36
2019-02-25T01:22:35.319Z,1.30
2019-02-25T01:25:08.315Z,1.27
2019-02-25T01:27:40.313Z,1.33
2019-02-25T01:30:12.418Z,1.26
2019-02-25T01:32:44.421Z,1.32
2019-02-25T01:35:16.387Z,1.40
2019-02-25T01:37:48.368Z,1.34
2019-02-25T01:40:20.320Z,1.29
2019-02-25T01:42:52.316Z,1.29
2019-02-25T01:45:24.270Z,1.25
2019-02-25T01:47:56.287Z,1.30
2019-02-25T01:50:28.265Z,1.22
2019-02-25T01:53:00.258Z,1.24
2019-02-25T01:55:32.228Z,1.22
2019-02-25T01:58:04.261Z,1.20
2019-02-25T02:00:36.184Z,1.22
2019-02-25T02:03:09.035Z,1.26
2019-02-25T02:05:40.989Z,1.24
2019-02-25T02:08:12.984Z,1.32
2019-02-25T02:10:44.937Z,1.40
2019-02-25T02:13:16.948Z,1.49
2019-02-25T02:15:49.031Z,1.46
2019-02-25T02:18:21.034Z,1.43
2019-02-25T02:20:52.999Z,1.51
2019-02-25T02:23:25.004Z,1.44
2019-02-25T02:25:57.030Z,1.44
2019-02-25T02:28:28.967Z,1.38
2019-02-25T02:31:00.956Z,1.34
2019-02-25T02:33:32.935Z,1.26
2019-02-25T02:36:04.920Z,1.22
2019-02-25T02:38:36.895Z,1.29
2019-02-25T02:41:08.872Z,1.28
2019-02-25T02:43:40.865Z,1.22
2019-02-25T02:46:25.290Z,1.25
2019-02-25T02:49:00.999Z,1.22
2019-02-25T02:51:32.983Z,1.18
2019-02-25T02:54:04.960Z,1.10
2019-02-25T02:56:36.930Z,1.08
2019-02-25T02:59:08.940Z,1.04
2019-02-25T03:01:40.935Z,1.07
2019-02-25T03:04:13.014Z,1.05
2019-02-25T03:06:45.011Z,0.94
2019-02-25T03:09:16.993Z,0.93
2019-02-25T03:11:49.001Z,0.92
2019-02-25T03:14:20.983Z,0.89
2019-02-25T03:16:52.965Z,0.90
2019-02-25T03:19:24.916Z,0.87
2019-02-25T03:21:56.898Z,0.83
2019-02-25T03:24:28.850Z,0.84
2019-02-25T03:27:00.855Z,0.81
2019-02-25T03:29:32.832Z,0.81
2019-02-25T03:32:04.831Z,0.75
2019-02-25T03:34:36.840Z,0.72
2019-02-25T03:37:08.833Z,0.72
2019-02-25T03:39:40.799Z,0.69
2019-02-25T03:42:12.821Z,0.65
2019-02-25T03:44:44.779Z,0.64
2019-02-25T03:47:16.766Z,0.65
2019-02-25T03:49:48.725Z,0.66
2019-02-25T03:52:20.720Z,0.57
2019-02-25T03:54:52.666Z,0.56
2019-02-25T03:57:24.679Z,0.50
2019-02-25T03:59:56.640Z,0.52
2019-02-25T04:02:28.634Z,0.52
2019-02-25T04:05:00.639Z,0.51
2019-02-25T04:07:32.616Z,0.47
2019-02-25T04:10:05.232Z,0.45
2019-02-25T04:12:37.180Z,0.51
2019-02-25T04:15:11.600Z,0.55
2019-02-25T04:17:43.581Z,0.52
2019-02-25T04:20:15.562Z,0.48
2019-02-25T04:22:47.558Z,0.39
2019-02-25T04:25:19.565Z,0.42
2019-02-25T04:27:51.513Z,0.40
2019-02-25T04:30:23.477Z,0.36
2019-02-25T04:32:55.459Z,0.44
2019-02-25T04:35:27.440Z,0.39
2019-02-25T04:37:59.461Z,0.34
2019-02-25T04:40:31.465Z,0.31
2019-02-25T04:43:03.446Z,0.26
2019-02-25T04:45:35.460Z,0.29
2019-02-25T04:48:07.413Z,0.27
2019-02-25T04:50:39.410Z,0.31
2019-02-25T04:53:11.376Z,0.25
2019-02-25T04:55:43.368Z,0.26
2019-02-25T04:58:15.358Z,0.26
2019-02-25T05:00:47.347Z,0.25
2019-02-25T05:03:19.335Z,0.35
2019-02-25T05:05:51.338Z,0.33
2019-02-25T05:08:23.317Z,0.32
2019-02-25T05:10:55.318Z,0.33
2019-02-25T05:13:27.282Z,0.31
2019-02-25T05:15:59.284Z,0.24
2019-02-25T05:18:31.227Z,0.24
2019-02-25T05:21:03.225Z,0.28
2019-02-25T05:23:35.214Z,0.22
2019-02-25T05:26:07.235Z,0.23
2019-02-25T05:28:39.196Z,0.27
2019-02-25T05:31:11.193Z,0.22
2019-02-25T05:33:43.157Z,0.06
2019-02-25T05:36:15.142Z,-0.04
2019-02-25T05:38:47.133Z,0.05
2019-02-25T05:41:19.117Z,0.15
2019-02-25T05:43:51.067Z,0.14
2019-02-25T05:46:23.064Z,0.08
2019-02-25T05:48:55.058Z,0.11
2019-02-25T05:51:27.059Z,0.11
2019-02-25T05:53:59.028Z,0.14
2019-02-25T05:56:31.039Z,0.12
2019-02-25T05:59:02.983Z,0.13
2019-02-25T06:01:34.944Z,0.17
2019-02-25T06:04:06.933Z,0.20
2019-02-25T06:06:39.028Z,0.19
2019-02-25T06:09:10.999Z,0.20
2019-02-25T06:11:42.988Z,0.18
2019-02-25T06:14:14.940Z,0.05
2019-02-25T06:16:47.025Z,0.06
2019-02-25T06:19:19.052Z,0.07
2019-02-25T06:21:51.013Z,0.20
2019-02-25T06:24:23.147Z,0.11
2019-02-25T06:26:55.104Z,0.14
2019-02-25T06:29:27.112Z,0.23
2019-02-25T06:31:59.099Z,0.24
2019-02-25T06:34:31.093Z,0.30
2019-02-25T06:37:03.042Z,0.27
2019-02-25T06:39:35.039Z,0.35
2019-02-25T06:42:06.984Z,0.45
2019-02-25T06:44:38.993Z,0.64
2019-02-25T06:47:12.692Z,0.95
2019-02-25T06:49:44.733Z,1.24
2019-02-25T06:52:16.736Z,1.48
2019-02-25T06:54:48.806Z,1.70
2019-02-25T06:57:20.917Z,1.85
2019-02-25T06:59:52.951Z,2.05
2019-02-25T07:02:24.973Z,2.20
2019-02-25T07:05:16.620Z,2.44
2019-02-25T07:08:02.464Z,2.74
2019-02-25T07:10:48.131Z,2.96
2019-02-25T07:13:45.638Z,3.21
2019-02-25T07:16:52.308Z,3.37
2019-02-25T07:19:35.148Z,3.63
2019-02-25T07:22:32.663Z,3.80
2019-02-25T07:25:33.838Z,3.99
2019-02-25T07:28:31.145Z,4.19
2019-02-25T07:31:31.561Z,4.31
2019-02-25T07:34:16.104Z,4.46
2019-02-25T07:37:02.676Z,4.68
2019-02-25T07:39:49.314Z,4.84
2019-02-25T07:42:37.659Z,5.05
2019-02-25T07:45:37.095Z,5.27
2019-02-25T07:48:17.509Z,5.29
2019-02-25T07:50:57.163Z,5.09
2019-02-25T07:53:51.503Z,5.40
2019-02-25T07:56:49.034Z,5.61
2019-02-25T07:59:26.070Z,5.84
2019-02-25T08:02:20.460Z,5.96
2019-02-25T08:05:23.990Z,5.95
2019-02-25T08:08:06.182Z,6.18
2019-02-25T08:11:10.116Z,6.43
2019-02-25T08:13:55.173Z,6.66
2019-02-25T08:16:37.329Z,6.88
2019-02-25T08:19:22.427Z,6.97
2019-02-25T08:22:23.227Z,7.09
2019-02-25T08:25:13.447Z,7.23
2019-02-25T08:28:04.350Z,7.63
2019-02-25T08:30:48.435Z,7.85
2019-02-25T08:33:38.618Z,8.10
2019-02-25T08:36:49.789Z,8.41
2019-02-25T08:39:53.664Z,8.67
2019-02-25T08:42:33.335Z,8.81
2019-02-25T08:45:36.990Z,9.15
2019-02-25T08:48:20.871Z,9.20
2019-02-25T08:50:52.890Z,9.22
2019-02-25T08:53:24.860Z,9.59
2019-02-25T08:55:58.348Z,9.75
2019-02-25T08:58:30.565Z,9.97
2019-02-25T09:01:02.576Z,10.07
2019-02-25T09:03:34.583Z,10.25
2019-02-25T09:06:06.565Z,10.36
2019-02-25T09:08:38.595Z,10.27
2019-02-25T09:11:14.138Z,10.27
2019-02-25T09:13:44.581Z,10.51
2019-02-25T09:16:16.629Z,10.55
2019-02-25T09:18:48.609Z,10.59
2019-02-25T09:21:20.653Z,10.78
2019-02-25T09:23:52.606Z,11.01
2019-02-25T09:26:24.646Z,11.20
2019-02-25T09:28:57.351Z,11.16
2019-02-25T09:31:29.526Z,11.33
2019-02-25T09:34:01.620Z,11.48
2019-02-25T09:36:33.622Z,11.59
2019-02-25T09:39:09.870Z,11.63
2019-02-25T09:41:41.890Z,11.72
2019-02-25T09:44:13.831Z,12.01
2019-02-25T09:46:45.923Z,12.29
2019-02-25T09:49:17.884Z,12.49
2019-02-25T09:51:49.868Z,12.50
2019-02-25T09:54:21.885Z,12.77
2019-02-25T09:56:53.900Z,12.76
2019-02-25T09:59:25.901Z,12.70
2019-02-25T10:01:57.905Z,12.82
2019-02-25T10:04:29.877Z,13.06
2019-02-25T10:07:02.634Z,13.29
2019-02-25T10:09:34.671Z,13.40
2019-02-25T10:12:06.762Z,13.51
2019-02-25T10:14:38.728Z,13.62
2019-02-25T10:17:10.784Z,13.70
2019-02-25T10:19:42.776Z,13.67
2019-02-25T10:22:14.781Z,13.88
2019-02-25T10:24:46.774Z,13.96
2019-02-25T10:27:18.821Z,14.01
2019-02-25T10:29:50.818Z,14.10
2019-02-25T10:32:23.670Z,14.07
2019-02-25T10:34:56.695Z,14.06
2019-02-25T10:37:28.685Z,14.22
2019-02-25T10:40:00.660Z,14.31
2019-02-25T10:42:33.544Z,14.41
2019-02-25T10:45:11.045Z,14.35
2019-02-25T10:47:44.251Z,14.29
2019-02-25T10:50:17.459Z,14.36
2019-02-25T10:52:49.671Z,14.51
2019-02-25T10:55:28.200Z,14.72
2019-02-25T10:58:02.027Z,14.72
2019-02-25T11:00:35.233Z,14.76
2019-02-25T11:03:08.442Z,14.76
2019-02-25T11:05:40.483Z,14.72
2019-02-25T11:08:14.344Z,14.90
2019-02-25T11:10:59.764Z,14.89
2019-02-25T11:13:32.296Z,14.98
2019-02-25T11:16:05.624Z,15.04
2019-02-25T11:18:37.645Z,15.32
2019-02-25T11:23:40.118Z,15.37
2019-02-25T11:26:12.306Z,15.41
2019-02-25T11:28:44.327Z,15.30
2019-02-25T11:31:18.177Z,15.40
2019-02-25T11:33:50.180Z,15.64
2019-02-25T11:36:22.226Z,15.59
2019-02-25T11:38:54.209Z,15.74
2019-02-25T11:41:26.195Z,15.71
2019-02-25T11:43:58.206Z,15.54
2019-02-25T11:46:30.213Z,15.80
2019-02-25T11:49:02.199Z,15.92
2019-02-25T11:51:34.210Z,15.59
2019-02-25T11:54:06.159Z,15.69
2019-02-25T11:56:38.188Z,15.65
2019-02-25T11:59:10.156Z,15.88
2019-02-25T12:01:42.165Z,15.97
2019-02-25T12:04:14.149Z,15.73
2019-02-25T12:06:46.122Z,15.76
2019-02-25T12:09:58.942Z,15.82
2019-02-25T12:12:30.965Z,15.84
2019-02-25T12:15:04.121Z,15.88
2019-02-25T12:17:36.137Z,15.98
2019-02-25T12:20:09.089Z,15.96
2019-02-25T12:22:41.107Z,16.00
2019-02-25T12:25:13.505Z,16.11
2019-02-25T12:27:45.533Z,15.90
2019-02-25T12:30:17.880Z,16.00
2019-02-25T12:32:49.869Z,16.05
2019-02-25T12:35:21.882Z,15.90
2019-02-25T12:37:53.873Z,15.93
2019-02-25T12:40:25.862Z,16.08
2019-02-25T12:42:57.889Z,16.11
2019-02-25T12:45:29.898Z,16.04
2019-02-25T12:48:01.966Z,15.94
2019-02-25T12:50:33.976Z,16.21
2019-02-25T12:53:05.970Z,16.10
2019-02-25T12:55:37.977Z,16.05
2019-02-25T12:58:29.565Z,16.13
2019-02-25T13:01:01.531Z,16.25
2019-02-25T13:03:33.540Z,16.33
2019-02-25T13:06:05.504Z,16.36
2019-02-25T13:08:37.510Z,16.45
2019-02-25T13:11:09.517Z,16.37
2019-02-25T13:13:41.522Z,16.29
2019-02-25T13:16:13.489Z,16.40
2019-02-25T13:18:45.548Z,16.49
2019-02-25T13:21:17.541Z,16.42
2019-02-25T13:23:49.508Z,16.57
2019-02-25T13:26:21.515Z,16.35
2019-02-25T13:28:53.504Z,16.42
2019-02-25T13:31:27.423Z,16.44
2019-02-25T13:33:59.426Z,16.57
2019-02-25T13:36:31.395Z,16.56
2019-02-25T13:39:04.790Z,16.52
2019-02-25T13:41:36.895Z,16.65
2019-02-25T13:44:08.956Z,16.51
2019-02-25T13:46:41.243Z,16.58
2019-02-25T13:49:13.243Z,16.50
2019-02-25T13:51:45.250Z,16.69
2019-02-25T13:54:17.327Z,16.70
2019-02-25T13:56:51.114Z,16.67
2019-02-25T13:59:23.161Z,16.83
2019-02-25T14:01:55.266Z,16.87
2019-02-25T14:04:27.278Z,16.90
2019-02-25T14:06:59.248Z,16.81
2019-02-25T14:09:33.149Z,16.91
2019-02-25T14:12:05.296Z,16.99
2019-02-25T14:14:37.236Z,16.98
2019-02-25T14:17:09.231Z,17.01
2019-02-25T14:19:41.268Z,17.09
2019-02-25T14:22:14.846Z,17.08
2019-02-25T14:24:49.419Z,17.24
2019-02-25T14:27:21.458Z,17.24
2019-02-25T14:29:53.466Z,17.33
2019-02-25T14:32:27.792Z,17.38
2019-02-25T14:35:01.162Z,17.39
2019-02-25T14:37:33.167Z,17.30
2019-02-25T14:40:06.641Z,17.22
2019-02-25T14:42:39.795Z,17.08
2019-02-25T14:45:14.669Z,17.17
2019-02-25T14:47:49.760Z,17.40
2019-02-25T14:50:22.210Z,17.18
2019-02-25T14:52:54.225Z,17.10
2019-02-25T14:55:27.922Z,17.14
2019-02-25T14:58:04.219Z,17.15
2019-02-25T15:00:35.290Z,16.97
2019-02-25T15:03:08.146Z,17.13
2019-02-25T15:05:40.149Z,17.08
2019-02-25T15:08:12.262Z,17.07
2019-02-25T15:10:44.288Z,17.15
2019-02-25T15:13:16.286Z,17.22
2019-02-25T15:15:50.084Z,17.25
2019-02-25T15:18:24.505Z,17.21
2019-02-25T15:20:58.318Z,17.09
2019-02-25T15:23:30.404Z,17.13
2019-02-25T15:26:06.173Z,17.14
2019-02-25T15:28:36.450Z,17.17
2019-02-25T15:31:09.486Z,17.10
2019-02-25T15:33:42.688Z,17.16
2019-02-25T15:36:17.459Z,17.03
2019-02-25T15:38:50.836Z,17.14
2019-02-25T15:41:22.828Z,16.96
2019-02-25T15:43:57.886Z,16.78
2019-02-25T15:46:29.682Z,17.08
2019-02-25T15:49:01.828Z,17.03
2019-02-25T15:51:35.071Z,16.80
2019-02-25T15:54:10.074Z,16.71
2019-02-25T15:56:42.034Z,16.64
2019-02-25T15:59:14.080Z,16.88
2019-02-25T16:01:46.565Z,16.68
2019-02-25T16:04:18.605Z,16.74
2019-02-25T16:06:51.275Z,16.58
2019-02-25T16:09:25.940Z,16.52
2019-02-25T16:11:58.947Z,16.39
2019-02-25T16:14:32.360Z,16.26
2019-02-25T16:17:04.353Z,16.51
2019-02-25T16:19:41.511Z,16.58
2019-02-25T16:22:11.841Z,16.26
2019-02-25T16:24:43.978Z,16.05
2019-02-25T16:27:16.798Z,15.95
2019-02-25T16:29:49.462Z,15.91
2019-02-25T16:32:21.895Z,15.88
2019-02-25T16:34:56.000Z,15.68
2019-02-25T16:37:31.199Z,15.69
2019-02-25T16:40:05.949Z,15.59
2019-02-25T16:42:39.362Z,15.44
2019-02-25T16:45:14.782Z,15.37
2019-02-25T16:47:46.892Z,15.22
2019-02-25T16:50:20.937Z,15.07
2019-02-25T16:52:53.848Z,14.93
2019-02-25T16:55:27.748Z,14.78
2019-02-25T16:58:03.462Z,14.64
2019-02-25T17:00:37.086Z,14.51
2019-02-25T17:03:11.243Z,14.27
2019-02-25T17:05:47.136Z,14.11
2019-02-25T17:08:19.815Z,13.95
2019-02-25T17:10:53.563Z,13.79
2019-02-25T17:13:29.304Z,13.67
2019-02-25T17:16:03.268Z,13.51
2019-02-25T17:18:35.501Z,13.40
2019-02-25T17:21:08.119Z,13.28
2019-02-25T17:23:40.521Z,13.16
2019-02-25T17:26:14.796Z,13.08
2019-02-25T17:28:46.970Z,12.97
2019-02-25T17:31:19.020Z,12.86
2019-02-25T17:33:51.898Z,12.71
2019-02-25T17:36:24.940Z,12.60
2019-02-25T17:38:58.843Z,12.47
2019-02-25T17:41:30.982Z,12.43
2019-02-25T17:44:03.578Z,12.31
2019-02-25T17:46:38.694Z,12.34
2019-02-25T17:49:12.258Z,12.14
2019-02-25T17:51:44.885Z,12.05
2019-02-25T17:54:16.941Z,11.98
2019-02-25T17:56:49.766Z,11.89
2019-02-25T17:59:23.539Z,11.80
2019-02-25T18:01:56.978Z,11.73
2019-02-25T18:04:30.884Z,11.75
2019-02-25T18:07:02.982Z,11.57
2019-02-25T18:09:35.916Z,11.48
2019-02-25T18:12:10.663Z,11.21
2019-02-25T18:14:43.673Z,11.02
2019-02-25T18:17:17.550Z,11.02
2019-02-25T18:19:52.481Z,10.83
2019-02-25T18:22:24.725Z,10.70
2019-02-25T18:24:56.798Z,10.60
2019-02-25T18:27:28.849Z,10.43
2019-02-25T18:30:00.914Z,10.32
2019-02-25T18:32:34.834Z,10.22
2019-02-25T18:35:07.611Z,10.18
2019-02-25T18:37:40.208Z,10.18
2019-02-25T18:40:16.187Z,10.15
2019-02-25T18:42:48.228Z,10.04
2019-02-25T18:45:20.823Z,9.99
2019-02-25T18:47:53.135Z,9.86
2019-02-25T18:50:26.859Z,9.85
2019-02-25T18:53:01.221Z,9.86
2019-02-25T18:55:34.191Z,9.81
2019-02-25T18:58:07.904Z,9.74
2019-02-25T19:00:42.991Z,9.69
2019-02-25T19:03:16.085Z,9.60
2019-02-25T19:05:49.014Z,9.55
2019-02-25T19:08:24.286Z,9.53
2019-02-25T19:10:57.269Z,9.45
2019-02-25T19:13:30.363Z,9.46
2019-02-25T19:16:04.589Z,9.41
2019-02-25T19:18:40.827Z,9.40
2019-02-25T19:21:11.270Z,9.33
2019-02-25T19:23:46.434Z,9.22
2019-02-25T19:26:19.639Z,9.13
2019-02-25T19:28:54.595Z,9.00
2019-02-25T19:31:26.996Z,8.96
2019-02-25T19:34:00.565Z,8.91
2019-02-25T19:36:34.892Z,8.85
2019-02-25T19:43:09.291Z,8.67
2019-02-25T19:45:31.133Z,8.62
2019-02-25T19:48:05.331Z,8.57
2019-02-25T19:50:47.838Z,8.51
2019-02-25T19:53:12.627Z,8.51
2019-02-25T19:55:46.145Z,8.52
2019-02-25T19:58:19.461Z,8.51
2019-02-25T20:00:56.159Z,8.51
2019-02-25T20:03:25.509Z,8.42
2019-02-25T20:05:57.566Z,8.41
2019-02-25T20:08:29.768Z,8.38
2019-02-25T20:11:01.891Z,8.32
2019-02-25T20:13:34.007Z,8.32
2019-02-25T20:16:08.120Z,8.18
2019-02-25T20:18:41.870Z,8.08
2019-02-25T20:21:14.062Z,8.01
2019-02-25T20:23:47.949Z,7.85
2019-02-25T20:26:22.428Z,7.73
2019-02-25T20:28:54.909Z,7.64
2019-02-25T20:31:27.000Z,7.56
2019-02-25T20:33:59.949Z,7.50
2019-02-25T20:36:33.010Z,7.27
2019-02-25T20:39:05.381Z,7.19
2019-02-25T20:41:37.464Z,7.09
2019-02-25T20:44:09.533Z,7.02
2019-02-25T20:46:41.598Z,6.97
2019-02-25T20:49:16.140Z,6.96
2019-02-25T20:51:49.607Z,6.98
2019-02-25T20:54:22.741Z,6.99
2019-02-25T20:56:55.498Z,6.99
2019-02-25T20:59:28.725Z,7.09
2019-02-25T21:02:01.618Z,7.13
2019-02-25T21:04:36.459Z,7.11
2019-02-25T21:07:08.932Z,7.08
2019-02-25T21:09:42.278Z,7.01
2019-02-25T21:12:18.493Z,6.89
2019-02-25T21:14:53.027Z,6.85
2019-02-25T21:17:25.168Z,6.83
2019-02-25T21:19:58.268Z,6.77
2019-02-25T21:22:36.232Z,6.81
2019-02-25T21:25:08.406Z,6.70
2019-02-25T21:27:41.222Z,6.53
2019-02-25T21:30:14.509Z,6.47
2019-02-25T21:32:47.382Z,6.37
2019-02-25T21:35:23.517Z,6.33
2019-02-25T21:37:55.610Z,6.09
2019-02-25T21:40:29.915Z,5.94
2019-02-25T21:43:01.689Z,5.92
2019-02-25T21:45:33.689Z,5.90
2019-02-25T21:48:07.661Z,5.79
2019-02-25T21:50:40.407Z,5.73
2019-02-25T21:53:15.887Z,5.76
2019-02-25T21:55:47.620Z,5.80
2019-02-25T21:58:21.380Z,5.87
2019-02-25T22:00:53.615Z,5.93
2019-02-25T22:03:25.676Z,5.95
2019-02-25T22:06:00.251Z,6.00
2019-02-25T22:08:33.561Z,6.02
2019-02-25T22:11:12.204Z,6.02
2019-02-25T22:13:39.509Z,5.99
2019-02-25T22:16:11.492Z,5.93
2019-02-25T22:18:43.502Z,5.98
2019-02-25T22:21:17.224Z,6.03
2019-02-25T22:23:52.075Z,6.04
2019-02-25T22:26:28.383Z,5.99
2019-02-25T22:28:59.305Z,5.95
2019-02-25T22:31:34.354Z,5.91
2019-02-25T22:34:06.760Z,5.93
2019-02-25T22:36:41.587Z,5.90
2019-02-25T22:39:12.902Z,5.94
2019-02-25T22:41:46.521Z,5.88
2019-02-25T22:44:18.821Z,5.88
2019-02-25T22:46:50.805Z,5.83
2019-02-25T22:49:24.642Z,5.80
2019-02-25T22:51:58.152Z,5.84
2019-02-25T22:54:30.591Z,5.82
2019-02-25T22:57:02.593Z,5.81
2019-02-25T22:59:35.491Z,5.76
2019-02-25T23:02:08.791Z,5.71
2019-02-25T23:04:44.940Z,5.71
2019-02-25T23:07:17.576Z,5.61
2019-02-25T23:09:50.046Z,5.52
2019-02-25T23:12:24.277Z,5.51
2019-02-25T23:14:58.891Z,5.45
2019-02-25T23:17:33.331Z,5.37
2019-02-25T23:20:07.755Z,5.29
2019-02-25T23:22:40.389Z,5.31
2019-02-25T23:25:12.430Z,5.13
2019-02-25T23:27:44.464Z,5.07
2019-02-25T23:30:16.478Z,4.97
2019-02-25T23:32:48.435Z,4.91
2019-02-25T23:35:21.170Z,4.83
2019-02-25T23:37:56.250Z,4.79
2019-02-25T23:40:31.216Z,4.72
2019-02-25T23:43:03.319Z,4.66
2019-02-25T23:45:37.829Z,4.69
2019-02-25T23:48:11.802Z,4.61
2019-02-25T23:50:43.842Z,4.61
2019-02-25T23:53:15.805Z,4.55
2019-02-25T23:55:49.518Z,4.48
2019-02-25T23:58:23.648Z,4.39
